createdAt,value
2018-11-26T09:06:41.898Z,25.27
2018-11-26T09:09:10.674Z,26.30
2018-11-26T09:11:39.099Z,26.27
2018-11-26T09:14:07.666Z,24.40
2018-11-26T09:16:36.259Z,26.30
2018-11-26T09:19:05.100Z,26.03
2018-11-26T09:21:33.476Z,25.17
2018-11-26T09:24:02.277Z,23.23
2018-11-26T09:26:30.734Z,21.93
2018-11-26T09:28:59.153Z,20.87
2018-11-26T09:31:27.529Z,20.67
2018-11-26T09:33:55.943Z,20.37
2018-11-26T09:36:24.399Z,19.03
2018-11-26T09:38:52.977Z,20.60
2018-11-26T09:41:21.393Z,19.00
2018-11-26T09:43:49.790Z,20.07
2018-11-26T09:46:18.174Z,20.20
2018-11-26T09:48:46.577Z,19.50
2018-11-26T09:51:14.987Z,21.50
2018-11-26T09:53:43.386Z,20.30
2018-11-26T09:56:11.770Z,21.23
2018-11-26T09:58:40.194Z,20.07
2018-11-26T10:01:08.569Z,20.07
2018-11-26T10:03:36.963Z,20.07
2018-11-26T10:06:05.981Z,20.90
2018-11-26T10:08:34.369Z,20.97
2018-11-26T10:11:02.758Z,20.63
2018-11-26T10:13:31.196Z,20.03
2018-11-26T10:15:59.566Z,19.73
2018-11-26T10:18:27.944Z,19.93
2018-11-26T10:20:56.354Z,19.73
2018-11-26T10:23:24.750Z,20.60
2018-11-26T10:25:53.176Z,19.90
2018-11-26T10:28:21.623Z,18.50
2018-11-26T10:30:50.012Z,19.30
2018-11-26T10:33:18.394Z,18.40
2018-11-26T10:35:46.836Z,19.40
2018-11-26T10:38:15.262Z,19.10
2018-11-26T10:40:43.664Z,19.60
2018-11-26T10:43:12.442Z,19.13
2018-11-26T10:45:40.580Z,20.30
2018-11-26T10:48:08.994Z,20.83
2018-11-26T10:50:37.407Z,23.03
2018-11-26T10:53:06.034Z,22.67
2018-11-26T10:55:35.611Z,22.40
2018-11-26T10:58:04.353Z,23.23
2018-11-26T11:00:46.117Z,23.17
2018-11-26T11:03:14.545Z,24.00
2018-11-26T11:05:43.879Z,24.40
2018-11-26T11:08:12.461Z,25.23
2018-11-26T11:10:40.905Z,24.57
2018-11-26T11:13:09.297Z,25.10
2018-11-26T11:15:37.816Z,24.33
2018-11-26T11:18:07.402Z,24.40
2018-11-26T11:20:36.229Z,25.63
2018-11-26T11:23:04.677Z,24.07
2018-11-26T11:25:33.773Z,23.23
2018-11-26T11:28:02.650Z,24.33
2018-11-26T11:30:31.229Z,24.13
2018-11-26T11:35:28.106Z,22.60
2018-11-26T11:37:56.534Z,23.43
2018-11-26T11:40:27.322Z,24.17
2018-11-26T11:42:56.209Z,24.07
2018-11-26T11:45:25.281Z,22.90
2018-11-26T11:47:53.829Z,23.67
2018-11-26T11:50:22.559Z,23.23
2018-11-26T11:52:51.276Z,23.13
2018-11-26T11:55:20.818Z,22.47
2018-11-26T11:57:49.330Z,23.47
2018-11-26T12:00:26.178Z,22.67
2018-11-26T12:02:54.782Z,24.33
2018-11-26T12:05:23.306Z,23.77
2018-11-26T12:07:51.904Z,24.80
2018-11-26T12:10:20.331Z,23.27
2018-11-26T12:12:48.750Z,24.37
2018-11-26T12:15:17.641Z,25.07
2018-11-26T12:17:46.967Z,23.87
2018-11-26T12:20:15.733Z,25.90
2018-11-26T12:22:44.703Z,25.37
2018-11-26T12:25:18.414Z,25.73
2018-11-26T12:27:46.940Z,25.50
2018-11-26T12:30:20.316Z,26.80
2018-11-26T12:32:48.799Z,27.20
2018-11-26T12:35:17.291Z,27.37
2018-11-26T12:37:45.780Z,26.77
2018-11-26T12:40:15.498Z,27.93
2018-11-26T12:42:43.910Z,26.77
2018-11-26T12:45:25.260Z,28.10
2018-11-26T12:47:53.694Z,27.03
2018-11-26T12:50:24.416Z,27.07
2018-11-26T12:52:52.850Z,27.37
2018-11-26T12:55:22.403Z,26.27
2018-11-26T12:57:51.405Z,29.90
2018-11-26T13:00:21.130Z,28.60
2018-11-26T13:02:51.615Z,27.67
2018-11-26T13:05:26.827Z,25.40
2018-11-26T13:07:55.270Z,26.53
2018-11-26T13:10:24.059Z,27.13
2018-11-26T13:12:52.741Z,28.07
2018-11-26T13:15:24.406Z,29.00
2018-11-26T13:17:52.995Z,27.47
2018-11-26T13:20:24.206Z,27.43
2018-11-26T13:22:53.191Z,28.53
2018-11-26T13:25:23.703Z,27.30
2018-11-26T13:27:53.859Z,28.07
2018-11-26T13:30:25.467Z,26.70
2018-11-26T13:32:55.385Z,26.97
2018-11-26T13:35:24.108Z,27.37
2018-11-26T13:37:52.759Z,26.87
2018-11-26T13:40:21.491Z,26.47
2018-11-26T13:42:50.419Z,25.93
2018-11-26T13:45:22.103Z,27.13
2018-11-26T13:47:50.510Z,28.47
2018-11-26T13:50:25.160Z,26.17
2018-11-26T13:52:53.670Z,26.37
2018-11-26T13:55:22.125Z,28.27
2018-11-26T13:57:50.979Z,25.43
2018-11-26T14:00:19.872Z,26.30
2018-11-26T14:02:48.421Z,27.47
2018-11-26T14:05:17.983Z,26.37
2018-11-26T14:07:46.991Z,25.27
2018-11-26T14:10:21.463Z,24.90
2018-11-26T14:12:54.680Z,25.13
2018-11-26T14:15:22.731Z,27.17
2018-11-26T14:17:51.159Z,26.80
2018-11-26T14:20:19.800Z,25.17
2018-11-26T14:22:48.231Z,25.07
2018-11-26T14:25:17.936Z,25.70
2018-11-26T14:27:47.027Z,26.03
2018-11-26T14:30:17.593Z,25.07
2018-11-26T14:32:46.088Z,27.47
2018-11-26T14:35:14.571Z,25.40
2018-11-26T14:37:43.286Z,25.97
2018-11-26T14:40:14.515Z,25.17
2018-11-26T14:42:43.026Z,25.93
2018-11-26T14:45:12.583Z,25.53
2018-11-26T14:47:41.168Z,26.50
2018-11-26T14:50:11.834Z,25.93
2018-11-26T14:52:40.589Z,25.90
2018-11-26T14:55:15.649Z,26.20
2018-11-26T14:57:44.196Z,25.53
2018-11-26T15:00:14.132Z,25.80
2018-11-26T15:02:43.676Z,26.13
2018-11-26T15:05:11.379Z,26.63
2018-11-26T15:07:39.827Z,25.70
2018-11-26T15:10:13.442Z,24.97
2018-11-26T15:12:42.158Z,25.77
2018-11-26T15:15:12.807Z,26.17
2018-11-26T15:17:42.328Z,25.03
2018-11-26T15:20:13.126Z,26.30
2018-11-26T15:22:41.621Z,25.33
2018-11-26T15:25:12.612Z,25.13
2018-11-26T15:27:41.148Z,26.23
2018-11-26T15:30:14.639Z,25.90
2018-11-26T15:32:43.435Z,24.30
2018-11-26T15:35:13.895Z,29.07
2018-11-26T15:37:42.338Z,25.97
2018-11-26T15:40:12.261Z,26.60
2018-11-26T15:42:40.671Z,25.10
2018-11-26T15:45:22.020Z,25.50
2018-11-26T15:47:51.596Z,26.00
2018-11-26T15:50:20.144Z,25.40
2018-11-26T15:52:48.661Z,25.40
2018-11-26T15:55:18.679Z,24.20
2018-11-26T15:57:47.588Z,24.70
2018-11-26T16:00:17.939Z,25.57
2018-11-26T16:02:46.483Z,24.57
2018-11-26T16:05:18.223Z,25.80
2018-11-26T16:07:47.638Z,23.40
2018-11-26T16:10:16.170Z,24.20
2018-11-26T16:12:45.924Z,24.57
2018-11-26T16:15:19.537Z,24.20
2018-11-26T16:17:48.016Z,22.87
2018-11-26T16:20:21.950Z,23.20
2018-11-26T16:22:50.518Z,23.33
2018-11-26T16:25:21.422Z,22.57
2018-11-26T16:27:49.891Z,24.30
2018-11-26T16:30:18.960Z,25.83
2018-11-26T16:32:52.745Z,23.77
2018-11-26T16:35:23.256Z,21.37
2018-11-26T16:37:51.728Z,21.77
2018-11-26T16:40:20.153Z,22.53
2018-11-26T16:42:49.491Z,21.57
2018-11-26T16:45:19.167Z,21.57
2018-11-26T16:47:49.946Z,21.30
2018-11-26T16:50:19.420Z,21.30
2018-11-26T16:52:47.827Z,23.80
2018-11-26T16:55:16.890Z,26.00
2018-11-26T16:57:45.346Z,20.03
2018-11-26T17:00:24.857Z,20.13
2018-11-26T17:02:58.627Z,20.80
2018-11-26T17:05:31.803Z,19.77
2018-11-26T17:08:00.241Z,20.47
2018-11-26T17:10:28.688Z,20.47
2018-11-26T17:12:57.999Z,19.50
2018-11-26T17:15:26.705Z,21.03
2018-11-26T17:17:55.166Z,20.07
2018-11-26T17:20:23.718Z,19.50
2018-11-26T17:22:52.166Z,21.33
2018-11-26T17:25:20.633Z,21.30
2018-11-26T17:27:49.112Z,20.80
2018-11-26T17:30:21.112Z,21.03
2018-11-26T17:32:53.056Z,23.17
2018-11-26T17:35:21.463Z,21.83
2018-11-26T17:37:51.192Z,21.17
2018-11-26T17:40:21.938Z,21.30
2018-11-26T17:42:51.010Z,21.27
2018-11-26T17:45:20.083Z,21.43
2018-11-26T17:47:52.847Z,21.63
2018-11-26T17:50:29.545Z,20.37
2018-11-26T17:52:58.605Z,19.97
2018-11-26T17:55:27.013Z,20.67
2018-11-26T17:57:55.531Z,19.77
2018-11-26T18:00:28.570Z,20.93
2018-11-26T18:02:57.036Z,20.57
2018-11-26T18:05:27.413Z,20.27
2018-11-26T18:07:58.494Z,19.70
2018-11-26T18:10:26.957Z,19.50
2018-11-26T18:12:55.386Z,20.30
2018-11-26T18:15:23.817Z,20.10
2018-11-26T18:17:52.243Z,20.97
2018-11-26T18:20:22.110Z,19.63
2018-11-26T18:22:52.055Z,19.23
2018-11-26T18:25:21.166Z,17.83
2018-11-26T18:27:53.431Z,16.50
2018-11-26T18:30:24.166Z,15.53
2018-11-26T18:32:52.607Z,15.63
2018-11-26T18:35:21.041Z,15.83
2018-11-26T18:37:49.556Z,15.37
2018-11-26T18:40:18.509Z,14.90
2018-11-26T18:42:46.927Z,15.73
2018-11-26T18:45:16.644Z,17.70
2018-11-26T18:47:45.894Z,14.80
2018-11-26T18:50:15.618Z,14.97
2018-11-26T18:52:44.672Z,15.37
2018-11-26T18:55:13.460Z,15.90
2018-11-26T18:57:42.245Z,16.13
2018-11-26T19:00:29.134Z,15.70
2018-11-26T19:02:58.234Z,14.33
2018-11-26T19:05:26.715Z,15.23
2018-11-26T19:07:55.581Z,16.40
2018-11-26T19:10:25.507Z,15.77
2018-11-26T19:12:56.756Z,16.23
2018-11-26T19:15:28.377Z,15.87
2018-11-26T19:17:59.084Z,16.47
2018-11-26T19:20:27.510Z,15.97
2018-11-26T19:22:55.971Z,16.20
2018-11-26T19:25:24.397Z,16.70
2018-11-26T19:27:52.859Z,17.47
2018-11-26T19:30:23.256Z,20.13
2018-11-26T19:32:49.746Z,20.93
2018-11-26T19:35:18.907Z,17.10
2018-11-26T19:37:47.384Z,17.93
2018-11-26T19:40:16.830Z,18.00
2018-11-26T19:42:46.412Z,17.90
2018-11-26T19:45:21.775Z,18.27
2018-11-26T19:47:50.205Z,18.03
2018-11-26T19:50:20.080Z,17.97
2018-11-26T19:52:50.207Z,19.97
2018-11-26T19:55:21.749Z,22.73
2018-11-26T19:57:50.875Z,19.03
2018-11-26T20:00:21.766Z,17.70
2018-11-26T20:03:00.147Z,17.53
2018-11-26T20:05:40.098Z,18.50
2018-11-26T20:08:08.555Z,17.17
2018-11-26T20:10:37.098Z,17.73
2018-11-26T20:13:06.092Z,18.20
2018-11-26T20:15:34.683Z,19.00
2018-11-26T20:18:03.259Z,17.57
2018-11-26T20:20:31.787Z,17.80
2018-11-26T20:23:00.336Z,17.13
2018-11-26T20:25:29.303Z,17.40
2018-11-26T20:27:57.783Z,17.37
2018-11-26T20:30:26.278Z,17.00
2018-11-26T20:32:54.824Z,16.77
2018-11-26T20:35:23.299Z,16.87
2018-11-26T20:37:51.787Z,16.93
2018-11-26T20:40:20.255Z,16.90
2018-11-26T20:42:53.000Z,16.03
2018-11-26T20:45:21.484Z,17.03
2018-11-26T20:47:51.156Z,16.67
2018-11-26T20:50:27.659Z,17.53
2018-11-26T20:52:56.098Z,15.63
2018-11-26T20:55:25.663Z,16.27
2018-11-26T20:57:55.545Z,16.80
2018-11-26T21:00:25.509Z,16.07
2018-11-26T21:02:56.267Z,16.30
2018-11-26T21:05:25.041Z,15.67
2018-11-26T21:07:53.697Z,15.50
2018-11-26T21:10:22.520Z,16.17
2018-11-26T21:12:51.081Z,16.30
2018-11-26T21:15:19.895Z,16.53
2018-11-26T21:17:52.619Z,16.27
2018-11-26T21:20:27.739Z,15.93
2018-11-26T21:22:57.382Z,15.53
2018-11-26T21:25:26.480Z,15.50
2018-11-26T21:27:55.210Z,15.87
2018-11-26T21:32:52.491Z,14.50
2018-11-26T21:35:21.087Z,15.70
2018-11-26T21:37:52.147Z,14.37
2018-11-26T21:40:23.333Z,14.83
2018-11-26T21:42:52.307Z,15.03
2018-11-26T21:45:25.708Z,16.37
2018-11-26T21:47:54.340Z,15.00
2018-11-26T21:50:23.119Z,15.90
2018-11-26T21:52:51.732Z,18.80
2018-11-26T21:55:21.009Z,15.73
2018-11-26T21:57:49.598Z,14.80
2018-11-26T22:00:28.203Z,15.27
2018-11-26T22:02:57.631Z,15.43
2018-11-26T22:05:26.422Z,15.20
2018-11-26T22:07:55.116Z,14.63
2018-11-26T22:10:24.434Z,15.23
2018-11-26T22:12:54.412Z,15.27
2018-11-26T22:15:23.767Z,14.80
2018-11-26T22:17:52.391Z,15.77
2018-11-26T22:20:24.245Z,15.33
2018-11-26T22:22:52.812Z,15.23
2018-11-26T22:25:21.456Z,15.27
2018-11-26T22:27:50.040Z,15.43
2018-11-26T22:30:21.165Z,15.20
2018-11-26T22:32:50.251Z,15.50
2018-11-26T22:35:18.938Z,16.40
2018-11-26T22:37:47.519Z,15.30
2018-11-26T22:40:20.728Z,15.40
2018-11-26T22:42:50.188Z,15.37
2018-11-26T22:45:23.686Z,15.60
2018-11-26T22:47:55.480Z,14.40
2018-11-26T22:50:23.927Z,15.37
2018-11-26T22:52:52.440Z,15.70
2018-11-26T22:55:20.888Z,13.73
2018-11-26T22:57:49.302Z,13.73
2018-11-26T23:00:23.043Z,14.43
2018-11-26T23:02:52.623Z,13.83
2018-11-26T23:05:21.170Z,13.90
2018-11-26T23:07:49.610Z,14.43
2018-11-26T23:10:18.072Z,14.57
2018-11-26T23:12:46.493Z,13.20
2018-11-26T23:15:15.661Z,12.80
2018-11-26T23:17:45.394Z,13.47
2018-11-26T23:20:14.794Z,12.87
2018-11-26T23:22:43.283Z,13.77
2018-11-26T23:25:16.852Z,12.93
2018-11-26T23:27:45.305Z,12.27
2018-11-26T23:30:20.698Z,12.50
2018-11-26T23:32:53.293Z,12.30
2018-11-26T23:35:21.719Z,11.73
2018-11-26T23:37:50.430Z,12.90
2018-11-26T23:40:18.878Z,11.90
2018-11-26T23:42:47.253Z,12.40
2018-11-26T23:45:17.533Z,11.63
2018-11-26T23:47:46.067Z,11.80
2018-11-26T23:50:15.203Z,11.80
2018-11-26T23:52:43.960Z,11.83
2018-11-26T23:55:20.032Z,12.70
2018-11-26T23:57:48.459Z,11.83
